createdAt,value
2018-03-08T00:00:50.817Z,5.37
2018-03-08T00:03:19.169Z,5.20
2018-03-08T00:05:47.555Z,5.10
2018-03-08T00:08:16.064Z,5.37
2018-03-08T00:10:44.408Z,5.50
2018-03-08T00:13:13.584Z,4.00
2018-03-08T00:15:42.119Z,4.07
2018-03-08T00:18:10.465Z,4.23
2018-03-08T00:20:38.827Z,3.50
2018-03-08T00:23:07.172Z,4.33
2018-03-08T00:25:36.300Z,3.83
2018-03-08T00:28:04.640Z,4.43
2018-03-08T00:30:33.751Z,3.97
2018-03-08T00:33:02.096Z,3.70
2018-03-08T00:35:30.530Z,3.93
2018-03-08T00:37:59.029Z,3.90
2018-03-08T00:40:27.374Z,4.30
2018-03-08T00:42:55.724Z,3.33
2018-03-08T00:45:24.820Z,3.10
2018-03-08T00:47:53.958Z,2.47
2018-03-08T00:50:22.299Z,3.30
2018-03-08T00:52:51.436Z,2.33
2018-03-08T00:55:19.761Z,3.50
2018-03-08T00:57:48.114Z,2.83
2018-03-08T01:00:16.269Z,2.73
2018-03-08T01:02:44.608Z,3.43
2018-03-08T01:05:13.729Z,2.40
2018-03-08T01:07:42.069Z,1.93
2018-03-08T01:10:10.422Z,3.97
2018-03-08T01:12:38.775Z,2.70
2018-03-08T01:15:07.131Z,2.23
2018-03-08T01:17:35.476Z,2.67
2018-03-08T01:20:03.547Z,3.10
2018-03-08T01:22:31.885Z,3.57
2018-03-08T01:25:00.229Z,3.33
2018-03-08T01:27:28.585Z,1.60
2018-03-08T01:29:57.697Z,3.77
2018-03-08T01:32:26.161Z,3.20
2018-03-08T01:34:55.255Z,2.00
2018-03-08T01:37:24.367Z,2.90
2018-03-08T01:39:52.708Z,2.50
2018-03-08T01:42:21.065Z,2.97
2018-03-08T01:44:49.395Z,2.00
2018-03-08T01:47:18.559Z,2.70
2018-03-08T01:49:46.926Z,3.27
2018-03-08T01:52:15.294Z,4.27
2018-03-08T01:54:43.653Z,2.40
2018-03-08T01:57:12.124Z,2.03
2018-03-08T01:59:40.493Z,2.67
2018-03-08T02:02:08.834Z,1.57
2018-03-08T02:04:37.188Z,2.93
2018-03-08T02:07:05.551Z,4.20
2018-03-08T02:09:33.881Z,2.73
2018-03-08T02:12:03.003Z,2.80
2018-03-08T02:14:31.352Z,3.13
2018-03-08T02:17:00.463Z,2.33
2018-03-08T02:19:29.583Z,1.40
2018-03-08T02:21:57.922Z,2.17
2018-03-08T02:24:27.045Z,1.33
2018-03-08T02:26:55.377Z,2.60
2018-03-08T02:29:23.723Z,2.23
2018-03-08T02:31:52.081Z,1.30
2018-03-08T02:34:20.418Z,2.67
2018-03-08T02:36:48.975Z,2.03
2018-03-08T02:39:17.342Z,2.67
2018-03-08T02:41:45.875Z,2.47
2018-03-08T02:44:14.851Z,3.10
2018-03-08T02:46:43.200Z,1.70
2018-03-08T02:49:11.564Z,1.93
2018-03-08T02:51:39.913Z,2.20
2018-03-08T02:54:08.243Z,2.57
2018-03-08T02:56:36.610Z,2.60
2018-03-08T02:59:04.949Z,2.20
2018-03-08T03:01:33.315Z,2.27
2018-03-08T03:04:01.859Z,2.20
2018-03-08T03:06:30.205Z,1.80
2018-03-08T03:08:58.561Z,0.77
2018-03-08T03:11:26.930Z,2.37
2018-03-08T03:13:55.483Z,2.03
2018-03-08T03:16:23.827Z,1.67
2018-03-08T03:18:52.159Z,2.20
2018-03-08T03:21:21.277Z,2.23
2018-03-08T03:23:49.292Z,3.20
2018-03-08T03:26:17.671Z,1.70
2018-03-08T03:28:46.018Z,2.20
2018-03-08T03:31:14.355Z,1.90
2018-03-08T03:33:43.501Z,1.80
2018-03-08T03:36:11.839Z,1.73
2018-03-08T03:38:40.976Z,1.90
2018-03-08T03:41:09.320Z,2.63
2018-03-08T03:43:37.665Z,2.53
2018-03-08T03:46:06.012Z,1.87
2018-03-08T03:48:35.327Z,2.83
2018-03-08T03:51:03.679Z,3.20
2018-03-08T03:53:32.019Z,2.10
2018-03-08T03:56:01.129Z,2.90
2018-03-08T03:58:29.479Z,2.60
2018-03-08T04:00:58.397Z,2.37
2018-03-08T04:03:26.762Z,3.00
2018-03-08T04:05:55.871Z,3.20
2018-03-08T04:08:24.216Z,2.00
2018-03-08T04:10:53.328Z,2.20
2018-03-08T04:13:22.445Z,2.40
2018-03-08T04:15:50.808Z,2.50
2018-03-08T04:18:19.145Z,0.77
2018-03-08T04:20:47.489Z,2.03
2018-03-08T04:23:15.835Z,2.20
2018-03-08T04:25:44.172Z,2.30
2018-03-08T04:28:12.547Z,1.53
2018-03-08T04:30:40.916Z,1.70
2018-03-08T04:33:09.257Z,1.90
2018-03-08T04:35:37.611Z,1.70
2018-03-08T04:38:06.733Z,1.00
2018-03-08T04:40:35.100Z,1.63
2018-03-08T04:43:04.324Z,1.13
2018-03-08T04:45:32.654Z,0.73
2018-03-08T04:48:01.774Z,0.80
2018-03-08T04:50:31.086Z,1.50
2018-03-08T04:52:59.444Z,2.60
2018-03-08T04:55:27.779Z,1.63
2018-03-08T04:57:56.139Z,1.60
2018-03-08T05:00:24.493Z,2.47
2018-03-08T05:02:52.819Z,2.27
2018-03-08T05:05:21.212Z,2.20
2018-03-08T05:07:50.695Z,2.03
2018-03-08T05:10:19.215Z,2.07
2018-03-08T05:12:48.584Z,2.47
2018-03-08T05:15:17.958Z,3.73
2018-03-08T05:17:47.355Z,3.93
2018-03-08T05:20:15.700Z,3.60
2018-03-08T05:22:44.812Z,4.20
2018-03-08T05:25:13.171Z,4.70
2018-03-08T05:27:42.284Z,4.87
2018-03-08T05:30:10.660Z,5.50
2018-03-08T05:32:38.995Z,3.90
2018-03-08T05:35:07.331Z,4.57
2018-03-08T05:37:35.683Z,4.07
2018-03-08T05:40:04.084Z,3.53
2018-03-08T05:42:32.795Z,3.83
2018-03-08T05:45:00.997Z,4.20
2018-03-08T05:47:29.351Z,4.37
2018-03-08T05:49:57.709Z,3.60
2018-03-08T05:52:26.813Z,3.97
2018-03-08T05:54:55.158Z,6.60
2018-03-08T05:57:23.518Z,3.87
2018-03-08T05:59:52.626Z,3.67
2018-03-08T06:02:20.980Z,3.60
2018-03-08T06:04:50.084Z,4.07
2018-03-08T06:07:19.220Z,3.77
2018-03-08T06:09:48.500Z,4.20
2018-03-08T06:12:16.839Z,3.70
2018-03-08T06:14:45.197Z,2.90
2018-03-08T06:17:13.539Z,3.10
2018-03-08T06:19:41.872Z,3.47
2018-03-08T06:22:10.228Z,3.10
2018-03-08T06:24:38.576Z,4.20
2018-03-08T06:27:06.924Z,2.73
2018-03-08T06:29:36.023Z,2.80
2018-03-08T06:32:04.388Z,1.90
2018-03-08T06:34:33.565Z,3.97
2018-03-08T06:37:01.921Z,3.20
2018-03-08T06:39:31.099Z,3.73
2018-03-08T06:41:59.437Z,5.80
2018-03-08T06:44:28.545Z,3.70
2018-03-08T06:46:57.660Z,4.00
2018-03-08T06:49:26.000Z,4.53
2018-03-08T06:51:55.137Z,4.20
2018-03-08T06:54:23.478Z,4.23
2018-03-08T06:56:52.596Z,4.67
2018-03-08T06:59:20.953Z,3.43
2018-03-08T07:01:50.064Z,4.43
2018-03-08T07:04:19.188Z,3.07
2018-03-08T07:06:47.538Z,3.27
2018-03-08T07:09:15.908Z,3.10
2018-03-08T07:11:45.030Z,4.57
2018-03-08T07:14:13.370Z,2.47
2018-03-08T07:16:42.512Z,4.47
2018-03-08T07:19:10.904Z,4.93
2018-03-08T07:21:40.302Z,3.47
2018-03-08T07:24:08.662Z,6.60
2018-03-08T07:26:37.000Z,4.00
2018-03-08T07:29:06.149Z,4.20
2018-03-08T07:31:34.490Z,2.23
2018-03-08T07:34:02.838Z,3.50
2018-03-08T07:36:31.239Z,3.37
2018-03-08T07:39:01.556Z,3.27
2018-03-08T07:41:30.896Z,2.00
2018-03-08T07:43:59.227Z,3.67
2018-03-08T07:46:28.334Z,3.53
2018-03-08T07:48:57.444Z,2.63
2018-03-08T07:51:25.787Z,2.00
2018-03-08T07:53:54.344Z,3.33
2018-03-08T07:56:22.706Z,3.60
2018-03-08T07:58:51.048Z,3.10
2018-03-08T08:01:20.245Z,1.67
2018-03-08T08:03:49.348Z,1.80
2018-03-08T08:06:28.872Z,2.40
2018-03-08T08:09:10.416Z,2.90
2018-03-08T08:11:38.773Z,2.50
2018-03-08T08:14:07.104Z,3.23
2018-03-08T08:16:36.224Z,1.50
2018-03-08T08:19:04.601Z,1.70
2018-03-08T08:21:32.934Z,2.27
2018-03-08T08:24:01.309Z,2.07
2018-03-08T08:26:29.645Z,2.60
2018-03-08T08:28:58.006Z,2.10
2018-03-08T08:31:26.359Z,2.13
2018-03-08T08:33:54.722Z,2.33
2018-03-08T08:36:23.077Z,2.53
2018-03-08T08:38:51.800Z,1.70
2018-03-08T08:41:20.690Z,2.57
2018-03-08T08:43:49.086Z,1.70
2018-03-08T08:46:18.191Z,1.80
2018-03-08T08:48:46.577Z,1.20
2018-03-08T08:51:14.633Z,1.57
2018-03-08T08:53:43.778Z,2.20
2018-03-08T08:56:12.122Z,1.93
2018-03-08T08:58:40.488Z,1.90
2018-03-08T09:01:09.595Z,1.93
2018-03-08T09:03:37.949Z,2.40
2018-03-08T09:06:07.116Z,1.30
2018-03-08T09:08:35.460Z,1.63
2018-03-08T09:11:03.803Z,1.53
2018-03-08T09:13:32.937Z,1.30
2018-03-08T09:16:01.275Z,1.00
2018-03-08T09:18:30.403Z,1.10
2018-03-08T09:20:58.741Z,1.50
2018-03-08T09:23:28.111Z,2.07
2018-03-08T09:25:56.461Z,1.23
2018-03-08T09:28:24.799Z,1.93
2018-03-08T09:30:53.944Z,1.10
2018-03-08T09:33:22.310Z,0.97
2018-03-08T09:35:50.645Z,0.60
2018-03-08T09:38:19.763Z,0.77
2018-03-08T09:40:48.104Z,0.80
2018-03-08T09:43:16.482Z,1.40
2018-03-08T09:45:44.832Z,1.83
2018-03-08T09:48:13.172Z,0.70
2018-03-08T09:50:41.529Z,0.50
2018-03-08T09:53:10.997Z,0.80
2018-03-08T09:55:39.373Z,0.90
2018-03-08T09:58:07.726Z,0.83
2018-03-08T10:00:36.071Z,0.60
2018-03-08T10:03:05.216Z,0.70
2018-03-08T10:05:33.657Z,1.10
2018-03-08T10:08:02.188Z,1.30
2018-03-08T10:10:30.559Z,0.60
2018-03-08T10:12:58.720Z,1.00
2018-03-08T10:15:27.069Z,1.20
2018-03-08T10:17:56.164Z,1.73
2018-03-08T10:20:25.300Z,1.47
2018-03-08T10:22:53.640Z,0.70
2018-03-08T10:25:22.746Z,0.90
2018-03-08T10:27:51.107Z,0.70
2018-03-08T10:30:20.209Z,1.23
2018-03-08T10:32:49.333Z,0.80
2018-03-08T10:35:17.673Z,1.50
2018-03-08T10:37:46.777Z,1.27
2018-03-08T10:40:15.169Z,0.97
2018-03-08T10:45:11.878Z,0.70
2018-03-08T10:47:40.417Z,0.90
2018-03-08T10:50:08.079Z,0.70
2018-03-08T10:52:36.427Z,0.90
2018-03-08T10:55:05.249Z,0.70
2018-03-08T10:57:34.410Z,1.03
2018-03-08T11:00:03.238Z,1.00
2018-03-08T11:02:34.248Z,1.00
2018-03-08T11:05:02.988Z,0.70
2018-03-08T11:07:31.319Z,0.70
2018-03-08T11:09:59.857Z,0.50
2018-03-08T11:12:28.261Z,0.57
2018-03-08T11:14:57.379Z,0.50
2018-03-08T11:17:25.703Z,0.60
2018-03-08T11:19:54.040Z,1.13
2018-03-08T11:22:22.384Z,0.97
2018-03-08T11:24:51.488Z,1.00
2018-03-08T11:27:20.619Z,1.00
2018-03-08T11:29:48.947Z,1.30
2018-03-08T11:32:18.804Z,0.80
2018-03-08T11:34:47.276Z,1.00
2018-03-08T11:37:15.604Z,0.90
2018-03-08T11:39:43.964Z,1.20
2018-03-08T11:42:15.002Z,1.10
2018-03-08T11:44:43.357Z,1.00
2018-03-08T11:47:11.715Z,1.60
2018-03-08T11:49:50.266Z,1.33
2018-03-08T11:52:18.868Z,1.03
2018-03-08T11:54:47.343Z,2.27
2018-03-08T11:57:16.600Z,1.00
2018-03-08T11:59:44.935Z,1.20
2018-03-08T12:02:13.299Z,1.13
2018-03-08T12:04:41.657Z,0.87
2018-03-08T12:07:09.996Z,0.70
2018-03-08T12:09:38.353Z,1.27
2018-03-08T12:12:07.472Z,1.93
2018-03-08T12:14:35.850Z,1.90
2018-03-08T12:17:04.248Z,1.10
2018-03-08T12:19:33.518Z,0.90
2018-03-08T12:22:01.883Z,1.00
2018-03-08T12:24:30.986Z,0.73
2018-03-08T12:27:00.159Z,1.07
2018-03-08T12:29:28.504Z,1.00
2018-03-08T12:31:56.840Z,1.40
2018-03-08T12:34:25.951Z,1.23
2018-03-08T12:36:54.293Z,1.77
2018-03-08T12:39:22.656Z,1.90
2018-03-08T12:41:51.017Z,1.87
2018-03-08T12:44:19.352Z,1.33
2018-03-08T12:46:47.716Z,1.30
2018-03-08T12:49:16.826Z,1.37
2018-03-08T12:51:45.200Z,1.83
2018-03-08T12:54:14.625Z,1.07
2018-03-08T12:56:42.973Z,1.90
2018-03-08T12:59:12.096Z,1.30
2018-03-08T13:01:40.451Z,0.93
2018-03-08T13:04:09.565Z,0.80
2018-03-08T13:06:38.051Z,1.60
2018-03-08T13:09:06.386Z,0.90
2018-03-08T13:11:35.542Z,1.13
2018-03-08T13:14:04.819Z,0.80
2018-03-08T13:16:33.202Z,1.57
2018-03-08T13:19:01.571Z,2.20
2018-03-08T13:21:30.106Z,0.60
2018-03-08T13:23:58.466Z,1.83
2018-03-08T13:26:26.805Z,0.90
2018-03-08T13:28:55.172Z,1.23
2018-03-08T13:31:23.516Z,1.47
2018-03-08T13:33:51.860Z,1.77
2018-03-08T13:36:20.242Z,0.70
2018-03-08T13:38:48.587Z,0.40
2018-03-08T13:41:16.936Z,0.87
2018-03-08T13:43:45.322Z,1.57
2018-03-08T13:46:14.703Z,0.90
2018-03-08T13:48:43.046Z,0.50
2018-03-08T13:51:11.411Z,0.60
2018-03-08T13:53:39.745Z,0.47
2018-03-08T13:56:08.909Z,0.70
2018-03-08T13:58:37.627Z,0.70
2018-03-08T14:01:05.447Z,1.10
2018-03-08T14:03:33.788Z,0.70
2018-03-08T14:06:02.915Z,0.93
2018-03-08T14:08:31.270Z,0.53
2018-03-08T14:11:00.752Z,1.40
2018-03-08T14:13:29.104Z,1.23
2018-03-08T14:15:57.289Z,0.70
2018-03-08T14:18:25.628Z,0.70
2018-03-08T14:20:53.998Z,0.60
2018-03-08T14:23:23.107Z,0.70
2018-03-08T14:25:51.465Z,0.67
2018-03-08T14:28:19.829Z,0.73
2018-03-08T14:30:48.972Z,0.63
2018-03-08T14:33:17.313Z,0.50
2018-03-08T14:35:45.666Z,0.53
2018-03-08T14:38:14.777Z,0.40
2018-03-08T14:40:43.144Z,0.30
2018-03-08T14:43:11.673Z,0.87
2018-03-08T14:45:40.022Z,0.93
2018-03-08T14:48:08.365Z,0.53
2018-03-08T14:50:36.535Z,0.73
2018-03-08T14:53:04.882Z,0.70
2018-03-08T14:55:33.283Z,0.80
2018-03-08T14:58:01.631Z,0.90
2018-03-08T15:00:29.983Z,1.00
2018-03-08T15:02:58.528Z,0.90
2018-03-08T15:05:26.904Z,0.87
2018-03-08T15:07:55.244Z,0.80
2018-03-08T15:10:23.607Z,1.10
2018-03-08T15:12:51.964Z,1.00
2018-03-08T15:15:21.094Z,1.33
2018-03-08T15:17:49.424Z,0.80
2018-03-08T15:20:18.613Z,0.83
2018-03-08T15:22:47.736Z,1.27
2018-03-08T15:25:16.098Z,0.90
2018-03-08T15:27:44.495Z,1.00
2018-03-08T15:30:12.846Z,0.37
2018-03-08T15:32:42.154Z,0.57
2018-03-08T15:35:11.288Z,0.50
2018-03-08T15:37:39.624Z,0.40
2018-03-08T15:40:08.742Z,0.70
2018-03-08T15:42:37.124Z,0.63
2018-03-08T15:45:05.485Z,0.30
2018-03-08T15:47:34.592Z,0.50
2018-03-08T15:50:02.950Z,0.70
2018-03-08T15:52:32.133Z,0.50
2018-03-08T15:55:01.281Z,0.60
2018-03-08T15:57:30.613Z,0.50
2018-03-08T15:59:58.969Z,0.40
2018-03-08T16:02:27.956Z,0.50
2018-03-08T16:04:56.330Z,0.47
2018-03-08T16:20:51.417Z,0.83
2018-03-08T16:23:19.773Z,0.40
2018-03-08T16:25:48.120Z,0.60
2018-03-08T16:28:16.489Z,1.40
2018-03-08T16:30:44.850Z,0.50
2018-03-08T16:33:13.184Z,0.43
2018-03-08T16:35:41.544Z,1.10
2018-03-08T16:38:10.712Z,0.87
2018-03-08T16:40:39.073Z,1.17
2018-03-08T16:43:07.417Z,0.70
2018-03-08T16:45:35.844Z,0.63
2018-03-08T16:48:04.194Z,1.03
2018-03-08T16:50:32.529Z,0.30
2018-03-08T16:53:01.647Z,0.80
2018-03-08T16:55:29.823Z,0.90
2018-03-08T16:57:58.164Z,0.30
2018-03-08T17:00:26.495Z,0.97
2018-03-08T17:02:54.859Z,1.00
2018-03-08T17:05:23.225Z,0.80
2018-03-08T17:07:52.553Z,0.80
2018-03-08T17:10:20.888Z,0.57
2018-03-08T17:12:49.991Z,1.00
2018-03-08T17:15:18.348Z,0.77
2018-03-08T17:17:46.687Z,1.80
2018-03-08T17:20:15.039Z,0.90
2018-03-08T17:22:43.045Z,0.83
2018-03-08T17:25:11.422Z,0.40
2018-03-08T17:27:40.855Z,0.73
2018-03-08T17:30:09.197Z,0.83
2018-03-08T17:32:38.317Z,0.60
2018-03-08T17:35:06.656Z,0.63
2018-03-08T17:37:35.014Z,1.17
2018-03-08T17:40:03.047Z,1.00
2018-03-08T17:42:31.675Z,0.67
2018-03-08T17:45:00.039Z,0.50
2018-03-08T17:47:28.376Z,0.53
2018-03-08T17:49:56.725Z,0.67
2018-03-08T17:52:25.064Z,0.50
2018-03-08T17:54:54.214Z,1.27
2018-03-08T17:57:22.551Z,1.20
2018-03-08T17:59:50.959Z,0.80
2018-03-08T18:02:20.205Z,1.03
2018-03-08T18:04:49.152Z,0.67
2018-03-08T18:07:17.500Z,0.77
2018-03-08T18:09:45.837Z,1.53
2018-03-08T18:12:14.214Z,0.80
2018-03-08T18:14:42.557Z,0.30
2018-03-08T18:17:10.918Z,0.70
2018-03-08T18:19:39.262Z,0.83
2018-03-08T18:22:08.398Z,0.53
2018-03-08T18:24:36.736Z,1.10
2018-03-08T18:27:05.853Z,3.10
2018-03-08T18:29:34.009Z,0.90
2018-03-08T18:32:03.117Z,0.90
2018-03-08T18:34:31.468Z,1.60
2018-03-08T18:37:00.581Z,0.50
2018-03-08T18:39:29.032Z,0.83
2018-03-08T18:41:57.378Z,0.70
2018-03-08T18:44:25.748Z,0.47
2018-03-08T18:46:54.101Z,1.17
2018-03-08T18:49:22.444Z,1.30
2018-03-08T18:51:50.797Z,0.57
2018-03-08T18:54:19.145Z,1.80
2018-03-08T18:56:47.522Z,1.40
2018-03-08T18:59:15.857Z,1.87
2018-03-08T19:01:44.256Z,0.90
2018-03-08T19:04:12.769Z,1.20
2018-03-08T19:06:41.114Z,0.90
2018-03-08T19:09:10.306Z,1.73
2018-03-08T19:11:39.445Z,1.40
2018-03-08T19:14:07.837Z,0.80
2018-03-08T19:16:36.956Z,1.70
2018-03-08T19:19:06.106Z,1.20
2018-03-08T19:21:34.448Z,1.20
2018-03-08T19:24:03.585Z,1.60
2018-03-08T19:26:31.927Z,0.77
2018-03-08T19:29:01.068Z,0.93
2018-03-08T19:31:29.425Z,1.80
2018-03-08T19:33:57.782Z,2.00
2018-03-08T19:36:26.917Z,1.20
2018-03-08T19:38:55.261Z,0.97
2018-03-08T19:41:24.375Z,1.20
2018-03-08T19:43:52.725Z,1.40
2018-03-08T19:46:21.974Z,1.90
2018-03-08T19:48:50.357Z,1.23
2018-03-08T19:51:18.729Z,0.90
2018-03-08T19:53:47.085Z,1.03
2018-03-08T19:56:15.436Z,0.67
2018-03-08T19:58:44.565Z,1.37
2018-03-08T20:01:12.920Z,2.17
2018-03-08T20:03:42.052Z,1.40
2018-03-08T20:06:10.395Z,1.30
2018-03-08T20:08:38.766Z,1.40
2018-03-08T20:11:07.896Z,1.50
2018-03-08T20:13:36.237Z,1.23
2018-03-08T20:16:05.119Z,1.33
2018-03-08T20:18:34.277Z,1.50
2018-03-08T20:21:02.701Z,1.20
2018-03-08T20:23:31.804Z,1.70
2018-03-08T20:26:00.928Z,1.93
2018-03-08T20:28:29.270Z,1.53
2018-03-08T20:30:58.408Z,0.77
2018-03-08T20:33:26.749Z,0.70
2018-03-08T20:35:55.873Z,1.13
2018-03-08T20:38:24.231Z,1.80
2018-03-08T20:40:53.436Z,2.03
2018-03-08T20:43:21.827Z,0.97
2018-03-08T20:45:50.172Z,1.23
2018-03-08T20:48:19.317Z,1.90
2018-03-08T20:50:47.656Z,1.77
2018-03-08T20:53:16.009Z,1.67
2018-03-08T20:55:44.476Z,1.00
2018-03-08T20:58:12.846Z,1.50
2018-03-08T21:00:41.233Z,2.00
2018-03-08T21:03:09.583Z,2.00
2018-03-08T21:05:37.930Z,1.60
2018-03-08T21:08:06.317Z,1.33
2018-03-08T21:10:34.723Z,2.10
2018-03-08T21:13:03.068Z,1.30
2018-03-08T21:15:31.425Z,1.67
2018-03-08T21:18:00.538Z,2.00
2018-03-08T21:20:28.946Z,1.23
2018-03-08T21:22:57.363Z,1.40
2018-03-08T21:25:25.738Z,1.50
2018-03-08T21:27:54.117Z,1.57
2018-03-08T21:30:22.478Z,1.07
2018-03-08T21:32:50.878Z,1.03
2018-03-08T21:35:19.996Z,1.30
2018-03-08T21:37:49.124Z,1.50
2018-03-08T21:40:17.528Z,1.27
2018-03-08T21:42:45.894Z,1.40
2018-03-08T21:45:14.248Z,1.67
2018-03-08T21:47:42.639Z,1.83
2018-03-08T21:50:11.008Z,1.60
2018-03-08T21:52:39.362Z,1.20
2018-03-08T21:55:08.688Z,1.13
2018-03-08T21:57:37.036Z,1.37
2018-03-08T22:00:05.393Z,1.53
2018-03-08T22:02:34.334Z,0.97
2018-03-08T22:05:02.686Z,1.23
2018-03-08T22:07:31.035Z,1.00
2018-03-08T22:09:59.434Z,1.30
2018-03-08T22:12:28.557Z,1.90
2018-03-08T22:14:56.958Z,1.20
2018-03-08T22:17:25.177Z,1.43
2018-03-08T22:19:53.678Z,1.20
2018-03-08T22:22:22.074Z,1.40
2018-03-08T22:24:50.508Z,2.03
2018-03-08T22:27:21.859Z,1.83
2018-03-08T22:29:51.125Z,1.43
2018-03-08T22:32:19.492Z,1.10
2018-03-08T22:34:47.837Z,2.57
2018-03-08T22:37:16.177Z,0.97
2018-03-08T22:39:44.545Z,1.90
2018-03-08T22:42:12.974Z,2.13
2018-03-08T22:44:42.092Z,1.80
2018-03-08T22:47:10.569Z,0.90
2018-03-08T22:49:38.921Z,0.90
2018-03-08T22:52:07.264Z,1.33
2018-03-08T22:54:35.627Z,1.67
2018-03-08T22:57:04.413Z,1.73
2018-03-08T22:59:32.858Z,1.97
2018-03-08T23:02:08.132Z,2.10
2018-03-08T23:04:36.497Z,2.10
2018-03-08T23:07:04.523Z,1.50
2018-03-08T23:09:33.686Z,1.93
2018-03-08T23:12:02.040Z,2.27
2018-03-08T23:14:31.531Z,1.33
2018-03-08T23:16:59.902Z,1.90
2018-03-08T23:19:28.286Z,1.00
2018-03-08T23:21:56.640Z,2.47
2018-03-08T23:24:24.996Z,1.50
2018-03-08T23:26:53.348Z,1.87
2018-03-08T23:29:21.775Z,0.90
2018-03-08T23:31:50.887Z,2.17
2018-03-08T23:34:19.241Z,1.90
2018-03-08T23:36:48.381Z,2.30
2018-03-08T23:39:16.748Z,3.00
2018-03-08T23:41:44.984Z,1.63
2018-03-08T23:44:14.127Z,1.07
2018-03-08T23:46:42.543Z,1.70
2018-03-08T23:49:10.877Z,2.27
2018-03-08T23:51:39.238Z,2.40
2018-03-08T23:54:07.626Z,1.47
2018-03-08T23:56:36.061Z,1.80
2018-03-08T23:59:05.171Z,2.60
